Terminal Aerodrome Forecast
Issued by NWS

Home | Current Version | Previous Version | Text Only | Print | Product List | Glossary On
Versions: 1 2 3 4 5 6 7 8 9 10 11 12 13 14
000
FTUS44 KLIX 190500 RRA
TAFMSY
TAF
KMSY 190540Z 1906/2006 04007KT 6SM -RA BR OVC020
     FM191200 09008KT 3SM SHRA OVC020
      TEMPO 1915/1918 1SM SHRA BKN015 OVC025
     FM191800 06008KT 3SM SHRA OVC020
      TEMPO 1918/1922 1SM SHRA BKN015
     FM200300 08006KT 3SM SHRA OVC020
      TEMPO 2003/2006 5SM -RA BKN025=

USA.gov is the U.S. government's official web portal to all federal, state and local government web resources and services.